Time;durP1;ratioP1;P1;durP2;ratioP2;P2;SDS_P1;SDS_P2;PMS_P1;PMS_P2;Temp;Humidity;BMP_temperature;BMP_pressure;BME280_temperature;BME280_humidity;BME280_pressure;Samples;Min_cycle;Max_cycle;Signal;HPM_P1;HPM_P2
2023/11/17 00:02:03;;;;;;;7.20;5.03;;;2.80;99.90;;;;;;5069341;28;20024;-49
2023/11/17 00:04:29;;;;;;;9.07;5.80;;;2.90;99.90;;;;;;5070585;28;20063;-50
2023/11/17 00:06:54;;;;;;;8.82;5.25;;;2.90;99.90;;;;;;5069982;28;20119;-50
2023/11/17 00:09:20;;;;;;;7.38;5.32;;;2.90;99.90;;;;;;5069163;28;20036;-52
2023/11/17 00:11:45;;;;;;;7.63;5.05;;;3.00;99.90;;;;;;5069143;28;20275;-51
2023/11/17 00:14:11;;;;;;;6.30;4.70;;;3.00;99.90;;;;;;5070145;28;20389;-48
2023/11/17 00:16:37;;;;;;;9.48;5.60;;;3.00;99.90;;;;;;5069389;28;20244;-48
2023/11/17 00:19:05;;;;;;;6.53;4.70;;;3.00;99.90;;;;;;5070096;28;20378;-51
2023/11/17 00:21:31;;;;;;;6.05;4.40;;;3.10;99.90;;;;;;5067836;28;20231;-50
2023/11/17 00:23:57;;;;;;;8.07;5.07;;;3.10;99.90;;;;;;5069993;28;20110;-49
2023/11/17 00:26:22;;;;;;;6.55;4.68;;;3.10;99.90;;;;;;5070042;28;20166;-50
2023/11/17 00:28:48;;;;;;;8.50;4.97;;;3.10;99.90;;;;;;5068949;28;20032;-50
2023/11/17 00:31:14;;;;;;;6.78;4.68;;;3.10;99.90;;;;;;5070050;28;20016;-46
2023/11/17 00:33:43;;;;;;;7.78;5.20;;;3.10;99.90;;;;;;5069959;28;20023;-47
2023/11/17 00:36:10;;;;;;;8.35;5.18;;;3.20;99.90;;;;;;5069992;28;20434;-47
2023/11/17 00:38:36;;;;;;;5.88;4.30;;;3.20;99.90;;;;;;5066038;28;20067;-50
2023/11/17 00:41:02;;;;;;;6.13;3.92;;;3.20;99.90;;;;;;5070047;28;20515;-50
2023/11/17 00:43:29;;;;;;;14.65;4.70;;;3.30;99.90;;;;;;5062796;28;20025;-48
2023/11/17 00:45:58;;;;;;;7.30;4.68;;;3.30;99.90;;;;;;5063180;28;20377;-48
2023/11/17 00:48:31;;;;;;;6.35;4.05;;;3.30;99.90;;;;;;5062798;28;20375;-48
2023/11/17 00:51:01;;;;;;;14.43;5.00;;;3.30;99.90;;;;;;5064013;28;20040;-47
2023/11/17 00:53:28;;;;;;;8.77;4.95;;;3.30;99.90;;;;;;5065181;28;20316;-48
2023/11/17 00:55:59;;;;;;;9.02;4.82;;;3.40;99.90;;;;;;5068188;28;20039;-49
2023/11/17 00:58:25;;;;;;;5.10;4.28;;;3.40;99.90;;;;;;5066127;28;20495;-50
2023/11/17 01:00:56;;;;;;;7.50;4.88;;;3.40;99.90;;;;;;5062794;28;20029;-50
2023/11/17 01:03:22;;;;;;;7.65;4.82;;;3.40;99.90;;;;;;5067818;28;20115;-50
2023/11/17 01:05:48;;;;;;;7.25;5.07;;;3.40;99.90;;;;;;5063470;28;20033;-50
2023/11/17 01:08:14;;;;;;;5.88;3.78;;;3.40;99.90;;;;;;5068993;28;20740;-48
2023/11/17 01:10:40;;;;;;;10.88;4.25;;;3.40;99.90;;;;;;5066338;28;20037;-49
2023/11/17 01:13:07;;;;;;;6.38;4.05;;;3.40;99.90;;;;;;5068711;28;20020;-50
2023/11/17 01:15:34;;;;;;;4.97;3.88;;;3.40;99.90;;;;;;5063737;28;20020;-51
2023/11/17 01:18:04;;;;;;;7.25;4.50;;;3.40;99.90;;;;;;5067062;28;20034;-48
2023/11/17 01:20:31;;;;;;;8.65;4.60;;;3.30;99.90;;;;;;5061140;28;20013;-48
2023/11/17 01:22:56;;;;;;;6.95;4.43;;;3.30;99.90;;;;;;5063156;28;20028;-48
2023/11/17 01:25:24;;;;;;;5.70;3.95;;;3.40;99.90;;;;;;5069484;28;20089;-50
2023/11/17 01:27:51;;;;;;;6.57;4.22;;;3.40;99.90;;;;;;5069093;28;20048;-48
2023/11/17 01:30:16;;;;;;;5.53;3.88;;;3.30;99.90;;;;;;5069279;28;20013;-48
2023/11/17 01:32:42;;;;;;;5.32;4.07;;;3.30;99.90;;;;;;5068472;28;20024;-51
2023/11/17 01:35:08;;;;;;;5.63;3.88;;;3.30;99.90;;;;;;5068596;28;20454;-51
2023/11/17 01:37:34;;;;;;;5.65;3.78;;;3.30;99.90;;;;;;5068614;28;20009;-51
2023/11/17 01:39:59;;;;;;;6.50;4.47;;;3.40;99.90;;;;;;5068889;28;20025;-52
2023/11/17 01:42:25;;;;;;;8.07;4.60;;;3.40;99.90;;;;;;5069249;28;20087;-51
2023/11/17 01:44:50;;;;;;;5.53;4.05;;;3.40;99.90;;;;;;5068279;28;20029;-51
2023/11/17 01:47:18;;;;;;;6.25;3.88;;;3.40;99.90;;;;;;5067879;28;20044;-51
2023/11/17 01:49:44;;;;;;;7.18;3.53;;;3.40;99.90;;;;;;5067531;28;20020;-50
2023/11/17 01:52:12;;;;;;;7.90;4.75;;;3.40;99.90;;;;;;5068525;28;20028;-51
2023/11/17 01:54:39;;;;;;;5.03;3.90;;;3.40;99.90;;;;;;5066803;28;20033;-51
2023/11/17 01:57:04;;;;;;;6.18;4.07;;;3.40;99.90;;;;;;5067966;28;20021;-51
2023/11/17 01:59:30;;;;;;;5.43;4.28;;;3.40;99.90;;;;;;5068720;28;20082;-51
2023/11/17 02:01:56;;;;;;;5.97;3.72;;;3.40;99.90;;;;;;5067619;28;20074;-53
2023/11/17 02:04:22;;;;;;;6.40;3.63;;;3.40;99.90;;;;;;5067627;28;20023;-52
2023/11/17 02:06:51;;;;;;;9.02;4.35;;;3.40;99.90;;;;;;5067298;28;20449;-52
2023/11/17 02:09:34;;;;;;;5.30;3.87;;;3.40;99.90;;;;;;5068291;28;20564;-52
2023/11/17 02:12:09;;;;;;;6.38;3.80;;;3.50;99.90;;;;;;5065659;28;20485;-52
2023/11/17 02:14:39;;;;;;;8.43;3.83;;;3.40;99.90;;;;;;5067986;28;20086;-51
2023/11/17 02:17:07;;;;;;;6.97;4.43;;;3.40;99.90;;;;;;5067513;28;20125;-51
2023/11/17 02:19:38;;;;;;;4.78;3.47;;;3.40;99.90;;;;;;5066924;28;20074;-52
2023/11/17 02:22:12;;;;;;;8.85;4.25;;;3.40;99.90;;;;;;5068364;28;20021;-52
2023/11/17 02:25:10;;;;;;;5.05;3.75;;;3.40;99.90;;;;;;5068347;28;20032;-51
2023/11/17 02:27:43;;;;;;;7.57;3.65;;;3.40;99.90;;;;;;5067625;28;20096;-52
2023/11/17 02:30:09;;;;;;;5.55;4.22;;;3.30;99.90;;;;;;5067133;28;20063;-52
2023/11/17 02:32:38;;;;;;;5.40;3.95;;;3.30;99.90;;;;;;5067563;28;20466;-50
2023/11/17 02:35:05;;;;;;;6.68;4.00;;;3.30;99.90;;;;;;5068160;28;20089;-50
2023/11/17 02:37:31;;;;;;;4.72;3.05;;;3.30;99.90;;;;;;5067880;28;20036;-51
2023/11/17 02:39:57;;;;;;;4.97;3.72;;;3.30;99.90;;;;;;5067984;28;20478;-52
2023/11/17 02:42:26;;;;;;;7.32;3.67;;;3.30;99.90;;;;;;5068109;28;20024;-49
2023/11/17 02:44:52;;;;;;;6.68;3.13;;;3.30;99.90;;;;;;5067263;28;20027;-52
2023/11/17 02:47:27;;;;;;;4.47;3.20;;;3.30;99.90;;;;;;5066573;28;20386;-51
2023/11/17 02:50:01;;;;;;;5.95;3.70;;;3.30;99.90;;;;;;5068223;28;20111;-52
2023/11/17 02:52:54;;;;;;;5.53;3.30;;;3.30;99.90;;;;;;5068091;28;20429;-52
2023/11/17 02:55:21;;;;;;;4.18;2.60;;;3.30;99.90;;;;;;5068099;28;20474;-51
2023/11/17 02:57:48;;;;;;;3.92;2.83;;;3.30;99.90;;;;;;5067622;28;20669;-51
2023/11/17 03:00:14;;;;;;;5.22;3.20;;;3.30;99.90;;;;;;5067855;28;20093;-51
2023/11/17 03:02:40;;;;;;;6.07;3.63;;;3.30;99.90;;;;;;5067658;28;20032;-49
2023/11/17 03:05:14;;;;;;;6.70;3.35;;;3.30;99.90;;;;;;5067680;28;20171;-48
2023/11/17 03:07:40;;;;;;;6.18;3.65;;;3.30;99.90;;;;;;5067583;28;20077;-51
2023/11/17 03:10:07;;;;;;;3.20;2.50;;;3.40;99.90;;;;;;5067443;28;20024;-52
2023/11/17 03:12:33;;;;;;;3.88;2.72;;;3.40;99.90;;;;;;5067702;28;20025;-52
2023/11/17 03:14:58;;;;;;;4.10;2.80;;;3.30;99.90;;;;;;5067051;28;20389;-52
2023/11/17 03:17:25;;;;;;;6.28;3.50;;;3.30;99.90;;;;;;5067461;28;20107;-52
2023/11/17 03:19:51;;;;;;;5.45;3.03;;;3.30;99.90;;;;;;5067957;28;20085;-52
2023/11/17 03:22:17;;;;;;;4.50;2.50;;;3.30;99.90;;;;;;5067684;28;20600;-52
2023/11/17 03:24:43;;;;;;;3.65;2.40;;;3.40;99.90;;;;;;5067501;28;20028;-52
2023/11/17 03:27:08;;;;;;;4.30;2.85;;;3.40;99.90;;;;;;5067261;28;20047;-51
2023/11/17 03:29:34;;;;;;;3.88;2.65;;;3.40;99.90;;;;;;5067522;28;20490;-50
2023/11/17 03:32:00;;;;;;;3.70;2.88;;;3.40;99.90;;;;;;5066063;28;20182;-51
2023/11/17 03:34:31;;;;;;;5.65;2.60;;;3.40;99.90;;;;;;5067654;28;20028;-52
2023/11/17 03:37:00;;;;;;;3.60;2.72;;;3.50;99.90;;;;;;5066794;28;20540;-52
2023/11/17 03:39:29;;;;;;;2.97;2.33;;;3.50;99.90;;;;;;5067264;28;20025;-48
2023/11/17 03:41:55;;;;;;;3.88;2.40;;;3.50;99.90;;;;;;5067443;28;20067;-51
2023/11/17 03:44:24;;;;;;;3.28;2.42;;;3.50;99.90;;;;;;5069406;28;20032;-51
2023/11/17 03:46:50;;;;;;;4.00;2.38;;;3.50;99.90;;;;;;5070426;28;20020;-51
2023/11/17 03:49:18;;;;;;;3.58;2.45;;;3.60;99.90;;;;;;5071194;28;20039;-51
2023/11/17 03:51:44;;;;;;;4.35;2.60;;;3.60;99.90;;;;;;5070994;28;20024;-51
2023/11/17 03:54:10;;;;;;;3.60;2.60;;;3.60;99.90;;;;;;5069546;28;20047;-52
2023/11/17 03:56:36;;;;;;;7.97;2.97;;;3.60;99.90;;;;;;5070330;28;20035;-51
2023/11/17 03:59:03;;;;;;;4.15;3.13;;;3.60;99.90;;;;;;5070857;28;20029;-52
2023/11/17 04:01:30;;;;;;;7.82;3.90;;;3.60;99.90;;;;;;5071007;28;20489;-52
2023/11/17 04:03:56;;;;;;;5.72;3.97;;;3.60;99.90;;;;;;5070982;28;20071;-51
2023/11/17 04:06:22;;;;;;;8.85;4.25;;;3.60;99.90;;;;;;5070400;28;20443;-52
2023/11/17 04:08:48;;;;;;;7.93;4.32;;;3.60;99.90;;;;;;5069014;28;20067;-52
2023/11/17 04:11:15;;;;;;;5.95;4.20;;;3.60;99.90;;;;;;5070629;28;20044;-52
2023/11/17 04:13:42;;;;;;;9.45;4.60;;;3.60;99.90;;;;;;5068717;28;20033;-51
2023/11/17 04:16:10;;;;;;;12.07;4.65;;;3.60;99.90;;;;;;5068592;28;20028;-51
2023/11/17 04:18:40;;;;;;;5.93;4.20;;;3.70;99.90;;;;;;5070201;28;20043;-52
2023/11/17 04:21:06;;;;;;;6.68;4.20;;;3.70;99.90;;;;;;5069079;28;20063;-51
2023/11/17 04:23:33;;;;;;;11.57;5.15;;;3.60;99.90;;;;;;5070221;28;20032;-52
2023/11/17 04:26:00;;;;;;;6.03;4.20;;;3.70;99.90;;;;;;5069974;28;20025;-52
2023/11/17 04:28:26;;;;;;;8.25;4.80;;;3.70;99.90;;;;;;5070354;28;20047;-52
2023/11/17 04:30:52;;;;;;;6.78;4.05;;;3.70;99.90;;;;;;5069862;28;20027;-48
2023/11/17 04:33:17;;;;;;;9.15;3.65;;;3.60;99.90;;;;;;5070172;28;20036;-52
2023/11/17 04:35:43;;;;;;;6.45;3.78;;;3.70;99.90;;;;;;5068275;28;20390;-52
2023/11/17 04:38:09;;;;;;;8.70;3.80;;;3.70;99.90;;;;;;5069664;28;20050;-52
2023/11/17 04:40:34;;;;;;;9.05;4.57;;;3.70;99.90;;;;;;5069039;28;20171;-51
2023/11/17 04:43:01;;;;;;;6.90;4.13;;;3.70;99.90;;;;;;5069765;28;20521;-51
2023/11/17 04:45:26;;;;;;;6.88;3.85;;;3.70;99.90;;;;;;5070014;28;20020;-53
2023/11/17 04:47:52;;;;;;;9.55;3.90;;;3.70;99.90;;;;;;5068337;28;20153;-52
2023/11/17 04:50:18;;;;;;;6.18;3.97;;;3.70;99.90;;;;;;5070369;28;20031;-52
2023/11/17 04:52:43;;;;;;;6.07;3.65;;;3.70;99.90;;;;;;5069662;28;20342;-52
2023/11/17 04:55:13;;;;;;;7.47;3.63;;;3.70;99.90;;;;;;5069050;28;20259;-52
2023/11/17 04:57:39;;;;;;;5.07;4.07;;;3.80;99.90;;;;;;5069426;28;20555;-53
2023/11/17 05:00:13;;;;;;;6.90;3.42;;;3.80;99.90;;;;;;5069605;28;20028;-52
2023/11/17 05:02:41;;;;;;;4.93;3.50;;;3.80;99.90;;;;;;5069538;28;20114;-52
2023/11/17 05:05:10;;;;;;;4.43;3.45;;;3.80;99.90;;;;;;5069449;28;20089;-52
2023/11/17 05:07:37;;;;;;;5.95;3.88;;;3.80;99.90;;;;;;5069112;28;20035;-51
2023/11/17 05:10:05;;;;;;;6.22;3.78;;;3.80;99.90;;;;;;5069416;28;20025;-52
2023/11/17 05:12:32;;;;;;;7.53;3.80;;;3.80;99.90;;;;;;5069348;28;20111;-50
2023/11/17 05:14:57;;;;;;;5.82;4.05;;;3.80;99.90;;;;;;5069018;28;20584;-49
2023/11/17 05:17:27;;;;;;;4.55;3.58;;;3.90;99.90;;;;;;5066618;28;20052;-51
2023/11/17 05:19:53;;;;;;;7.32;4.13;;;3.90;99.90;;;;;;5067375;28;20484;-51
2023/11/17 05:22:18;;;;;;;6.22;4.10;;;3.90;99.90;;;;;;5068825;28;20070;-51
2023/11/17 05:24:44;;;;;;;7.07;4.75;;;3.90;99.90;;;;;;5069009;28;20025;-49
2023/11/17 05:27:10;;;;;;;9.55;4.85;;;3.90;99.90;;;;;;5068471;28;20107;-51
2023/11/17 05:29:36;;;;;;;7.03;4.53;;;3.90;99.90;;;;;;5066450;28;20203;-52
2023/11/17 05:32:03;;;;;;;7.38;5.18;;;3.80;99.90;;;;;;5068945;28;20031;-51
2023/11/17 05:34:29;;;;;;;10.43;5.22;;;3.90;99.90;;;;;;5069366;28;20110;-51
2023/11/17 05:36:54;;;;;;;7.78;5.00;;;3.80;99.90;;;;;;5068626;28;20425;-51
2023/11/17 05:39:20;;;;;;;9.10;5.47;;;3.80;99.90;;;;;;5068869;28;20092;-51
2023/11/17 05:41:46;;;;;;;10.60;5.78;;;3.80;99.90;;;;;;5069008;28;20025;-51
2023/11/17 05:44:12;;;;;;;8.32;5.25;;;3.80;99.90;;;;;;5068677;28;20418;-52
2023/11/17 05:46:38;;;;;;;8.75;5.32;;;3.80;99.90;;;;;;5068301;28;20056;-52
2023/11/17 05:49:04;;;;;;;11.95;6.28;;;3.80;99.90;;;;;;5068805;28;20024;-51
2023/11/17 05:51:30;;;;;;;12.13;5.22;;;3.80;99.90;;;;;;5066891;28;20028;-52
2023/11/17 05:53:55;;;;;;;11.18;6.55;;;3.80;99.90;;;;;;5067889;28;20036;-52
2023/11/17 05:56:22;;;;;;;12.35;6.00;;;3.80;99.90;;;;;;5067960;28;20025;-49
2023/11/17 05:58:49;;;;;;;9.32;5.80;;;3.80;99.90;;;;;;5068481;28;20162;-51
2023/11/17 06:01:14;;;;;;;10.07;5.32;;;3.80;99.90;;;;;;5068537;28;20017;-51
2023/11/17 06:03:40;;;;;;;9.45;6.43;;;3.80;99.90;;;;;;5068162;28;20035;-51
2023/11/17 06:06:05;;;;;;;10.32;5.90;;;3.90;99.90;;;;;;5067866;28;20323;-52
2023/11/17 06:08:32;;;;;;;12.48;6.50;;;3.90;99.90;;;;;;5067830;28;20304;-52
2023/11/17 06:10:58;;;;;;;9.68;6.25;;;3.90;99.90;;;;;;5068895;28;20502;-52
2023/11/17 06:13:24;;;;;;;11.75;6.72;;;3.90;99.90;;;;;;5068936;28;20100;-52
2023/11/17 06:15:50;;;;;;;10.43;6.22;;;3.90;99.90;;;;;;5068275;28;20104;-52
2023/11/17 06:18:16;;;;;;;11.30;6.43;;;3.90;99.90;;;;;;5068433;28;20039;-52
2023/11/17 06:20:42;;;;;;;12.65;6.82;;;3.90;99.90;;;;;;5067706;28;20020;-51
2023/11/17 06:23:11;;;;;;;13.32;7.22;;;3.90;99.90;;;;;;5068749;28;20030;-52
2023/11/17 06:25:36;;;;;;;14.65;7.18;;;3.90;99.90;;;;;;5068624;28;20027;-52
2023/11/17 06:28:03;;;;;;;13.93;8.45;;;3.90;99.90;;;;;;5069405;28;20400;-52
2023/11/17 06:30:30;;;;;;;14.77;7.72;;;3.90;99.90;;;;;;5071970;28;20024;-52
2023/11/17 06:32:55;;;;;;;13.02;7.78;;;3.90;99.90;;;;;;5073175;28;20146;-52
2023/11/17 06:35:21;;;;;;;13.23;7.43;;;3.90;99.90;;;;;;5071553;28;20639;-52
2023/11/17 06:37:47;;;;;;;13.15;7.85;;;3.90;99.90;;;;;;5072519;28;20060;-51
2023/11/17 06:40:15;;;;;;;14.65;7.32;;;3.90;99.90;;;;;;5067479;28;20071;-52
2023/11/17 06:42:41;;;;;;;13.20;8.00;;;3.90;99.90;;;;;;5071531;28;20027;-52
2023/11/17 06:45:06;;;;;;;11.02;6.28;;;3.80;99.90;;;;;;5072515;28;20412;-51
2023/11/17 06:47:32;;;;;;;12.57;7.63;;;3.80;99.90;;;;;;5073913;28;20091;-52
2023/11/17 06:49:58;;;;;;;14.02;7.88;;;3.80;99.90;;;;;;5075993;28;20111;-51
2023/11/17 06:52:24;;;;;;;13.65;8.15;;;3.80;99.90;;;;;;5073799;28;20020;-54
2023/11/17 06:54:49;;;;;;;12.68;8.50;;;3.80;99.90;;;;;;5076031;28;20027;-52
2023/11/17 06:57:15;;;;;;;12.32;7.95;;;3.80;99.90;;;;;;5073316;28;20028;-47
2023/11/17 06:59:40;;;;;;;15.70;8.10;;;3.80;99.90;;;;;;5074342;28;20066;-51
2023/11/17 07:02:07;;;;;;;14.85;8.45;;;3.80;99.90;;;;;;5074633;28;20020;-52
2023/11/17 07:04:33;;;;;;;16.15;8.45;;;3.70;99.90;;;;;;5073423;28;20020;-51
2023/11/17 07:06:59;;;;;;;14.65;7.93;;;3.70;99.90;;;;;;5074793;28;20073;-51
2023/11/17 07:09:30;;;;;;;13.23;7.30;;;3.70;99.90;;;;;;5073266;28;20123;-51
2023/11/17 07:11:59;;;;;;;15.00;7.40;;;3.70;99.90;;;;;;5074987;28;20106;-51
2023/11/17 07:14:26;;;;;;;15.48;9.32;;;3.70;99.90;;;;;;5072744;28;20131;-52
2023/11/17 07:16:52;;;;;;;13.70;7.30;;;3.60;99.90;;;;;;5075118;28;20031;-52
2023/11/17 07:19:20;;;;;;;17.00;7.85;;;3.60;99.90;;;;;;5072721;28;20028;-51
2023/11/17 07:21:50;;;;;;;12.40;8.25;;;3.70;99.90;;;;;;5078597;28;20355;-52
2023/11/17 07:24:16;;;;;;;13.93;8.32;;;3.60;99.90;;;;;;5077006;28;20020;-52
2023/11/17 07:26:44;;;;;;;15.60;8.55;;;3.70;99.90;;;;;;5076901;28;20039;-52
2023/11/17 07:29:13;;;;;;;12.85;7.15;;;3.70;99.90;;;;;;5076893;28;20120;-51
2023/11/17 07:31:42;;;;;;;16.02;8.02;;;3.60;99.90;;;;;;5074360;28;20020;-50
2023/11/17 07:34:08;;;;;;;18.05;9.98;;;3.70;99.90;;;;;;5077282;28;20024;-51
2023/11/17 07:36:37;;;;;;;11.85;7.50;;;3.70;99.90;;;;;;5074768;28;20465;-51
2023/11/17 07:39:06;;;;;;;17.23;8.10;;;3.70;99.90;;;;;;5075897;28;20012;-51
2023/11/17 07:41:33;;;;;;;11.45;6.78;;;3.70;99.90;;;;;;5075637;28;20019;-52
2023/11/17 07:44:03;;;;;;;13.35;7.80;;;3.70;99.90;;;;;;5077961;28;20356;-51
2023/11/17 07:46:28;;;;;;;11.57;6.90;;;3.70;99.90;;;;;;5075507;28;20025;-52
2023/11/17 07:48:55;;;;;;;11.23;6.97;;;3.80;99.90;;;;;;5078362;28;20108;-52
2023/11/17 07:51:21;;;;;;;13.32;7.40;;;3.80;99.90;;;;;;5075719;28;20454;-52
2023/11/17 07:53:47;;;;;;;14.15;8.48;;;3.80;99.90;;;;;;5073216;28;20111;-51
2023/11/17 07:56:14;;;;;;;10.20;6.97;;;3.80;99.90;;;;;;5070839;28;20411;-52
2023/11/17 07:58:40;;;;;;;13.52;7.28;;;3.90;99.90;;;;;;5070764;28;20054;-51
2023/11/17 08:01:09;;;;;;;10.88;7.13;;;4.00;99.90;;;;;;5069438;28;20074;-52
2023/11/17 08:03:38;;;;;;;10.52;6.43;;;4.00;99.90;;;;;;5070610;28;20032;-51
2023/11/17 08:06:04;;;;;;;11.43;7.55;;;4.20;99.90;;;;;;5070097;28;20039;-52
2023/11/17 08:08:32;;;;;;;13.68;7.13;;;4.20;99.90;;;;;;5069183;28;20039;-52
2023/11/17 08:10:59;;;;;;;13.98;6.78;;;4.30;99.90;;;;;;5070317;28;20412;-53
2023/11/17 08:13:25;;;;;;;13.77;6.68;;;4.40;99.90;;;;;;5070217;28;20052;-52
2023/11/17 08:15:51;;;;;;;10.05;6.88;;;4.40;99.90;;;;;;5068427;28;20056;-52
2023/11/17 08:18:17;;;;;;;13.35;6.63;;;4.40;99.90;;;;;;5070348;28;20127;-51
2023/11/17 08:20:44;;;;;;;13.45;6.57;;;4.50;99.90;;;;;;5068795;28;20466;-52
2023/11/17 08:23:10;;;;;;;8.73;6.30;;;4.60;99.90;;;;;;5070295;28;20415;-53
2023/11/17 08:25:36;;;;;;;16.05;6.82;;;4.60;99.90;;;;;;5068527;28;20241;-52
2023/11/17 08:28:03;;;;;;;10.73;6.68;;;4.70;99.90;;;;;;5070745;28;20012;-52
2023/11/17 08:30:28;;;;;;;13.40;7.05;;;4.70;99.90;;;;;;5069418;28;20025;-52
2023/11/17 08:32:55;;;;;;;18.75;7.10;;;4.80;99.90;;;;;;5068369;28;20025;-52
2023/11/17 08:35:22;;;;;;;14.98;6.40;;;4.80;99.90;;;;;;5070289;28;20037;-53
2023/11/17 08:37:48;;;;;;;13.52;8.40;;;4.80;99.90;;;;;;5069786;28;20078;-52
2023/11/17 08:40:18;;;;;;;11.95;7.00;;;4.80;99.90;;;;;;5069380;28;20094;-52
2023/11/17 08:42:44;;;;;;;11.80;6.38;;;4.80;99.90;;;;;;5070009;28;20020;-52
2023/11/17 08:45:09;;;;;;;9.80;6.22;;;4.80;99.90;;;;;;5070331;28;20567;-51
2023/11/17 08:47:35;;;;;;;9.57;6.18;;;4.90;99.90;;;;;;5069932;28;20024;-50
2023/11/17 08:50:02;;;;;;;8.70;6.53;;;4.90;99.90;;;;;;5070447;28;20486;-52
2023/11/17 08:52:33;;;;;;;10.48;6.72;;;4.90;99.90;;;;;;5070034;28;20059;-53
2023/11/17 08:54:58;;;;;;;10.75;5.25;;;4.90;99.90;;;;;;5068587;28;20039;-52
2023/11/17 08:57:25;;;;;;;11.57;5.85;;;5.00;99.90;;;;;;5070164;28;20017;-51
2023/11/17 08:59:50;;;;;;;12.63;6.13;;;5.00;99.90;;;;;;5069991;28;20065;-53
2023/11/17 09:02:16;;;;;;;8.43;6.10;;;5.10;99.90;;;;;;5069720;28;20021;-51
2023/11/17 09:04:43;;;;;;;9.02;6.30;;;5.10;99.90;;;;;;5069688;28;20175;-52
2023/11/17 09:07:09;;;;;;;14.32;6.13;;;5.20;99.90;;;;;;5069036;28;20352;-52
2023/11/17 09:09:36;;;;;;;12.90;5.95;;;5.20;99.90;;;;;;5069610;28;20074;-52
2023/11/17 09:12:04;;;;;;;6.88;5.50;;;5.30;99.90;;;;;;5069662;28;20029;-52
2023/11/17 09:14:30;;;;;;;9.27;5.25;;;5.20;99.90;;;;;;5069252;28;20115;-52
2023/11/17 09:16:55;;;;;;;8.27;5.50;;;5.30;99.90;;;;;;5068727;28;20103;-51
2023/11/17 09:19:21;;;;;;;9.80;5.35;;;5.30;99.90;;;;;;5069254;28;20040;-51
2023/11/17 09:21:47;;;;;;;11.02;5.82;;;5.30;99.90;;;;;;5068866;28;20032;-53
2023/11/17 09:24:12;;;;;;;8.50;5.65;;;5.40;99.90;;;;;;5069538;28;20017;-52
2023/11/17 09:26:38;;;;;;;8.93;5.15;;;5.40;99.90;;;;;;5068732;28;20100;-51
2023/11/17 09:29:03;;;;;;;10.07;5.68;;;5.50;99.90;;;;;;5068822;28;20028;-52
2023/11/17 09:31:29;;;;;;;7.07;5.70;;;5.50;99.90;;;;;;5068954;28;20024;-51
2023/11/17 09:33:55;;;;;;;10.00;5.22;;;5.50;99.90;;;;;;5067228;28;20121;-51
2023/11/17 09:36:20;;;;;;;7.75;5.75;;;5.50;99.90;;;;;;5069140;28;20025;-51
2023/11/17 09:38:48;;;;;;;8.73;6.07;;;5.50;99.90;;;;;;5069442;28;20367;-51
2023/11/17 09:41:13;;;;;;;13.57;5.85;;;5.60;99.90;;;;;;5067511;28;20044;-52
2023/11/17 09:43:43;;;;;;;14.90;5.80;;;5.60;99.90;;;;;;5068748;28;20465;-52
2023/11/17 09:46:11;;;;;;;10.07;6.87;;;5.60;99.90;;;;;;5068139;28;20021;-52
2023/11/17 09:48:38;;;;;;;13.30;6.60;;;5.60;99.90;;;;;;5068197;28;20319;-52
2023/11/17 09:51:04;;;;;;;8.23;5.72;;;5.70;99.90;;;;;;5066670;28;20020;-49
2023/11/17 09:53:35;;;;;;;12.10;6.82;;;5.60;99.90;;;;;;5068393;28;20085;-50
2023/11/17 09:56:03;;;;;;;13.75;6.13;;;5.70;99.90;;;;;;5069459;28;20380;-51
2023/11/17 09:58:29;;;;;;;9.48;5.53;;;5.70;99.90;;;;;;5066336;28;20094;-52
2023/11/17 10:00:56;;;;;;;12.40;6.95;;;5.60;99.90;;;;;;5069769;28;20437;-48
2023/11/17 10:03:22;;;;;;;10.10;5.85;;;5.70;99.90;;;;;;5069867;28;20024;-50
2023/11/17 10:05:50;;;;;;;6.45;4.90;;;5.70;99.90;;;;;;5072340;28;20024;-49
2023/11/17 10:08:17;;;;;;;8.30;5.78;;;5.70;99.90;;;;;;5070315;28;20052;-51
2023/11/17 10:10:47;;;;;;;10.63;6.03;;;5.80;99.90;;;;;;5069783;28;20036;-48
2023/11/17 10:13:18;;;;;;;9.45;5.05;;;5.80;99.90;;;;;;5068587;28;20025;-50
2023/11/17 10:15:51;;;;;;;10.02;6.22;;;5.80;99.90;;;;;;5067564;28;20032;-48
2023/11/17 10:18:25;;;;;;;9.20;6.50;;;5.90;99.90;;;;;;5068792;28;20381;-51
2023/11/17 10:20:53;;;;;;;11.88;6.43;;;6.00;99.90;;;;;;5068677;28;20020;-50
2023/11/17 10:23:20;;;;;;;8.57;6.05;;;5.90;99.90;;;;;;5068429;28;20020;-52
2023/11/17 10:25:52;;;;;;;7.82;5.25;;;6.00;99.90;;;;;;5068068;28;20025;-49
2023/11/17 10:28:18;;;;;;;7.25;5.10;;;6.00;99.90;;;;;;5068855;28;20683;-51
2023/11/17 10:30:46;;;;;;;11.88;5.65;;;6.10;99.90;;;;;;5069815;28;20020;-51
2023/11/17 10:33:24;;;;;;;12.27;5.30;;;6.10;99.90;;;;;;5066539;28;20565;-52
2023/11/17 10:36:00;;;;;;;6.88;5.40;;;6.20;99.90;;;;;;5069296;28;20379;-51
2023/11/17 10:38:26;;;;;;;7.90;5.85;;;6.20;99.90;;;;;;5069969;28;20320;-50
2023/11/17 10:40:51;;;;;;;7.93;5.05;;;6.20;99.90;;;;;;5070254;28;20032;-52
2023/11/17 10:43:17;;;;;;;6.93;5.22;;;6.30;99.90;;;;;;5075494;28;20043;-52
2023/11/17 10:45:45;;;;;;;7.28;4.82;;;6.30;99.90;;;;;;5072342;28;20063;-51
2023/11/17 10:48:16;;;;;;;8.85;5.38;;;6.30;99.90;;;;;;5072106;28;20020;-51
2023/11/17 10:50:42;;;;;;;;;;;6.30;99.90;;;;;;5072989;28;20009;-51
2023/11/17 10:53:19;;;;;;;7.38;5.03;;;6.30;99.90;;;;;;5074374;28;19908;-51
2023/11/17 10:55:46;;;;;;;8.18;4.97;;;6.40;99.90;;;;;;5074106;28;20067;-51
2023/11/17 10:58:15;;;;;;;7.22;4.97;;;6.40;99.90;;;;;;5077736;28;20015;-52
2023/11/17 11:00:49;;;;;;;8.45;5.30;;;6.40;99.90;;;;;;5076653;28;20024;-52
2023/11/17 11:03:16;;;;;;;9.00;4.93;;;6.50;99.90;;;;;;5076255;28;20499;-49
2023/11/17 11:05:48;;;;;;;8.55;5.28;;;6.60;99.90;;;;;;5081613;28;20062;-52
2023/11/17 11:08:17;;;;;;;6.10;4.57;;;6.70;99.90;;;;;;5071926;28;20024;-52
2023/11/17 11:10:54;;;;;;;8.80;5.13;;;6.70;99.90;;;;;;5070902;28;20020;-48
2023/11/17 11:13:28;;;;;;;6.10;4.35;;;6.60;99.90;;;;;;5071619;28;20020;-49
2023/11/17 11:16:05;;;;;;;6.32;4.25;;;6.60;99.90;;;;;;5071205;28;20023;-50
2023/11/17 11:18:35;;;;;;;6.78;4.82;;;6.70;99.90;;;;;;5071371;28;20099;-50
2023/11/17 11:21:04;;;;;;;6.87;4.20;;;6.70;99.90;;;;;;5071606;28;20354;-50
2023/11/17 11:23:31;;;;;;;5.47;3.95;;;6.60;99.90;;;;;;5069929;28;20024;-51
2023/11/17 11:25:59;;;;;;;6.20;4.55;;;6.60;99.90;;;;;;5070695;28;20028;-50
2023/11/17 11:28:25;;;;;;;7.95;5.00;;;6.70;99.90;;;;;;5071319;28;20040;-50
2023/11/17 11:30:54;;;;;;;9.23;4.60;;;6.70;99.90;;;;;;5071352;28;20051;-51
2023/11/17 11:33:21;;;;;;;8.77;3.80;;;6.80;99.90;;;;;;5069571;28;20055;-51
2023/11/17 11:35:47;;;;;;;7.40;4.68;;;6.80;99.90;;;;;;5071096;28;20051;-51
2023/11/17 11:38:13;;;;;;;6.88;4.30;;;6.80;99.90;;;;;;5070856;28;20020;-51
2023/11/17 11:40:41;;;;;;;4.15;3.50;;;6.90;99.90;;;;;;5071174;28;20032;-51
2023/11/17 11:43:07;;;;;;;5.57;4.07;;;6.90;99.90;;;;;;5070186;28;20108;-51
2023/11/17 11:45:34;;;;;;;7.55;4.35;;;7.20;99.90;;;;;;5071041;28;20112;-50
2023/11/17 11:48:02;;;;;;;5.93;3.67;;;7.20;99.90;;;;;;5071240;28;20060;-51
2023/11/17 11:50:37;;;;;;;4.88;3.80;;;7.30;99.90;;;;;;5071526;28;20032;-51
2023/11/17 11:53:15;;;;;;;13.07;5.70;;;7.20;99.90;;;;;;5071492;28;20037;-50
2023/11/17 11:55:41;;;;;;;6.55;4.22;;;7.20;99.90;;;;;;5070825;28;20485;-51
2023/11/17 11:58:07;;;;;;;8.10;4.55;;;7.20;99.90;;;;;;5071129;28;20021;-51
2023/11/17 12:00:34;;;;;;;6.00;4.18;;;7.20;99.90;;;;;;5071562;28;20104;-51
2023/11/17 12:03:01;;;;;;;5.57;3.50;;;7.20;99.90;;;;;;5070138;28;20027;-50
2023/11/17 12:05:33;;;;;;;6.20;4.10;;;7.30;99.90;;;;;;5071328;28;20039;-50
2023/11/17 12:08:02;;;;;;;8.00;4.50;;;7.40;99.90;;;;;;5071072;28;20025;-51
2023/11/17 12:10:48;;;;;;;5.35;3.78;;;7.40;99.90;;;;;;5081992;28;20024;-51
2023/11/17 12:13:54;;;;;;;6.32;3.95;;;7.40;99.90;;;;;;5076389;28;20036;-51
2023/11/17 12:16:28;;;;;;;5.60;3.85;;;7.30;99.90;;;;;;5070869;28;20056;-51
2023/11/17 12:18:55;;;;;;;6.95;4.47;;;7.20;99.90;;;;;;5069772;28;20021;-49
2023/11/17 12:21:24;;;;;;;11.85;5.05;;;7.20;99.90;;;;;;5071498;28;20020;-52
2023/11/17 12:23:54;;;;;;;8.38;4.55;;;7.20;99.90;;;;;;5070892;28;20029;-51
2023/11/17 12:26:22;;;;;;;8.40;4.03;;;7.10;99.90;;;;;;5070307;28;20052;-52
2023/11/17 12:28:48;;;;;;;6.28;3.65;;;7.10;99.90;;;;;;5071162;28;20058;-52
2023/11/17 12:31:15;;;;;;;5.80;3.33;;;7.00;99.90;;;;;;5070839;28;20400;-52
2023/11/17 12:33:41;;;;;;;3.88;2.88;;;7.10;99.90;;;;;;5070701;28;20024;-49
2023/11/17 12:36:15;;;;;;;5.20;3.13;;;7.10;99.90;;;;;;5067473;28;20107;-52
2023/11/17 12:38:42;;;;;;;7.47;3.05;;;7.10;99.90;;;;;;5070259;28;20020;-51
2023/11/17 12:41:11;;;;;;;3.80;2.80;;;7.10;99.90;;;;;;5074543;28;20029;-51
2023/11/17 12:43:38;;;;;;;4.18;2.95;;;7.20;99.90;;;;;;5081533;28;20359;-50
2023/11/17 12:46:06;;;;;;;5.00;2.75;;;7.30;99.90;;;;;;5075619;28;20025;-51
2023/11/17 12:48:32;;;;;;;4.72;3.08;;;7.30;99.90;;;;;;5073493;28;20024;-51
2023/11/17 12:50:58;;;;;;;4.53;2.80;;;7.30;99.90;;;;;;5070981;28;20031;-51
2023/11/17 12:53:24;;;;;;;4.32;2.42;;;7.30;99.90;;;;;;5073986;28;20216;-52
2023/11/17 12:55:53;;;;;;;3.63;2.75;;;7.30;99.90;;;;;;5078539;28;20501;-51